sensor_id;sensor_type;location;lat;lon;timestamp;temperature;humidity
55436;DHT22;41307;53.142;6.430;2022-11-12T00:00:51;6.40;99.90
55436;DHT22;41307;53.142;6.430;2022-11-12T00:03:17;6.40;99.90
55436;DHT22;41307;53.142;6.430;2022-11-12T00:05:44;6.30;99.90
55436;DHT22;41307;53.142;6.430;2022-11-12T00:08:10;6.30;99.90
55436;DHT22;41307;53.142;6.430;2022-11-12T00:10:36;6.20;99.90
55436;DHT22;41307;53.142;6.430;2022-11-12T00:13:01;6.30;99.90
55436;DHT22;41307;53.142;6.430;2022-11-12T00:15:27;6.30;99.90
55436;DHT22;41307;53.142;6.430;2022-11-12T00:17:53;6.30;99.90
55436;DHT22;41307;53.142;6.430;2022-11-12T00:20:21;6.30;99.90
55436;DHT22;41307;53.142;6.430;2022-11-12T00:22:47;6.40;99.90
55436;DHT22;41307;53.142;6.430;2022-11-12T00:25:13;6.40;99.90
55436;DHT22;41307;53.142;6.430;2022-11-12T00:27:39;6.30;99.90
55436;DHT22;41307;53.142;6.430;2022-11-12T00:30:05;7.10;99.90
55436;DHT22;41307;53.142;6.430;2022-11-12T00:32:31;6.40;99.90
55436;DHT22;41307;53.142;6.430;2022-11-12T00:34:57;6.40;99.90
55436;DHT22;41307;53.142;6.430;2022-11-12T00:37:22;6.80;99.90
55436;DHT22;41307;53.142;6.430;2022-11-12T00:39:49;6.40;99.90
55436;DHT22;41307;53.142;6.430;2022-11-12T00:42:17;6.60;99.90
55436;DHT22;41307;53.142;6.430;2022-11-12T00:44:43;6.40;99.90
55436;DHT22;41307;53.142;6.430;2022-11-12T00:47:09;6.40;99.90
55436;DHT22;41307;53.142;6.430;2022-11-12T00:49:35;6.40;99.90
55436;DHT22;41307;53.142;6.430;2022-11-12T00:52:00;6.30;99.90
55436;DHT22;41307;53.142;6.430;2022-11-12T00:54:26;6.30;99.90
55436;DHT22;41307;53.142;6.430;2022-11-12T00:56:52;6.30;99.90
55436;DHT22;41307;53.142;6.430;2022-11-12T00:59:18;6.30;99.90
55436;DHT22;41307;53.142;6.430;2022-11-12T01:01:46;6.30;99.90
55436;DHT22;41307;53.142;6.430;2022-11-12T01:04:12;7.00;99.90
55436;DHT22;41307;53.142;6.430;2022-11-12T01:06:40;6.40;99.90
55436;DHT22;41307;53.142;6.430;2022-11-12T01:09:07;6.40;99.90
55436;DHT22;41307;53.142;6.430;2022-11-12T01:11:33;6.40;99.90
55436;DHT22;41307;53.142;6.430;2022-11-12T01:14:03;6.40;99.90
55436;DHT22;41307;53.142;6.430;2022-11-12T01:16:34;6.50;99.90
55436;DHT22;41307;53.142;6.430;2022-11-12T01:19:02;7.10;99.90
55436;DHT22;41307;53.142;6.430;2022-11-12T01:21:30;6.40;99.90
55436;DHT22;41307;53.142;6.430;2022-11-12T01:23:57;6.40;99.90
55436;DHT22;41307;53.142;6.430;2022-11-12T01:26:24;6.70;99.90
55436;DHT22;41307;53.142;6.430;2022-11-12T01:28:50;7.20;99.90
55436;DHT22;41307;53.142;6.430;2022-11-12T01:31:18;6.60;99.90
55436;DHT22;41307;53.142;6.430;2022-11-12T01:33:46;6.40;99.90
55436;DHT22;41307;53.142;6.430;2022-11-12T01:36:14;6.40;99.90
55436;DHT22;41307;53.142;6.430;2022-11-12T01:38:43;6.80;99.90
55436;DHT22;41307;53.142;6.430;2022-11-12T01:41:13;6.40;99.90
55436;DHT22;41307;53.142;6.430;2022-11-12T01:43:40;6.30;99.90
55436;DHT22;41307;53.142;6.430;2022-11-12T01:46:32;6.40;99.90
55436;DHT22;41307;53.142;6.430;2022-11-12T01:49:02;6.70;99.90
55436;DHT22;41307;53.142;6.430;2022-11-12T01:51:41;6.20;99.90
55436;DHT22;41307;53.142;6.430;2022-11-12T01:54:12;6.30;99.90
55436;DHT22;41307;53.142;6.430;2022-11-12T01:56:44;5.80;99.90
55436;DHT22;41307;53.142;6.430;2022-11-12T01:59:25;6.10;99.90
55436;DHT22;41307;53.142;6.430;2022-11-12T02:01:51;6.10;99.90
55436;DHT22;41307;53.142;6.430;2022-11-12T02:04:17;6.10;99.90
55436;DHT22;41307;53.142;6.430;2022-11-12T02:06:44;6.60;99.90
55436;DHT22;41307;53.142;6.430;2022-11-12T02:09:13;6.10;99.90
55436;DHT22;41307;53.142;6.430;2022-11-12T02:11:39;6.90;99.90
55436;DHT22;41307;53.142;6.430;2022-11-12T02:14:05;6.00;99.90
55436;DHT22;41307;53.142;6.430;2022-11-12T02:16:35;5.60;99.90
55436;DHT22;41307;53.142;6.430;2022-11-12T02:19:03;6.00;99.90
55436;DHT22;41307;53.142;6.430;2022-11-12T02:21:29;6.10;99.90
55436;DHT22;41307;53.142;6.430;2022-11-12T02:26:46;6.20;99.90
55436;DHT22;41307;53.142;6.430;2022-11-12T02:29:13;6.90;99.90
55436;DHT22;41307;53.142;6.430;2022-11-12T02:31:39;6.00;99.90
55436;DHT22;41307;53.142;6.430;2022-11-12T02:34:07;6.70;99.90
55436;DHT22;41307;53.142;6.430;2022-11-12T02:36:33;5.90;99.90
55436;DHT22;41307;53.142;6.430;2022-11-12T02:38:59;5.90;99.90
55436;DHT22;41307;53.142;6.430;2022-11-12T02:41:25;6.50;99.90
55436;DHT22;41307;53.142;6.430;2022-11-12T02:43:51;6.50;99.90
55436;DHT22;41307;53.142;6.430;2022-11-12T02:46:17;5.80;99.90
55436;DHT22;41307;53.142;6.430;2022-11-12T02:48:43;6.50;99.90
55436;DHT22;41307;53.142;6.430;2022-11-12T02:51:09;5.80;99.90
55436;DHT22;41307;53.142;6.430;2022-11-12T02:53:35;6.30;99.90
55436;DHT22;41307;53.142;6.430;2022-11-12T02:56:01;5.60;99.90
55436;DHT22;41307;53.142;6.430;2022-11-12T02:58:28;5.60;99.90
55436;DHT22;41307;53.142;6.430;2022-11-12T03:00:56;5.70;99.90
55436;DHT22;41307;53.142;6.430;2022-11-12T03:03:22;5.50;99.90
55436;DHT22;41307;53.142;6.430;2022-11-12T03:05:59;6.10;99.90
55436;DHT22;41307;53.142;6.430;2022-11-12T03:08:28;5.50;99.90
55436;DHT22;41307;53.142;6.430;2022-11-12T03:10:56;5.90;99.90
55436;DHT22;41307;53.142;6.430;2022-11-12T03:13:22;5.50;99.90
55436;DHT22;41307;53.142;6.430;2022-11-12T03:16:00;5.50;99.90
55436;DHT22;41307;53.142;6.430;2022-11-12T03:18:26;5.20;99.90
55436;DHT22;41307;53.142;6.430;2022-11-12T03:20:56;5.30;99.90
55436;DHT22;41307;53.142;6.430;2022-11-12T03:23:22;6.00;99.90
55436;DHT22;41307;53.142;6.430;2022-11-12T03:25:48;5.30;99.90
55436;DHT22;41307;53.142;6.430;2022-11-12T03:28:14;6.00;99.90
55436;DHT22;41307;53.142;6.430;2022-11-12T03:30:41;5.50;99.90
55436;DHT22;41307;53.142;6.430;2022-11-12T03:33:09;5.20;99.90
55436;DHT22;41307;53.142;6.430;2022-11-12T03:35:36;5.20;99.90
55436;DHT22;41307;53.142;6.430;2022-11-12T03:38:04;5.50;99.90
55436;DHT22;41307;53.142;6.430;2022-11-12T03:40:31;5.00;99.90
55436;DHT22;41307;53.142;6.430;2022-11-12T03:42:58;5.00;99.90
55436;DHT22;41307;53.142;6.430;2022-11-12T03:45:25;5.00;99.90
55436;DHT22;41307;53.142;6.430;2022-11-12T03:47:54;4.90;99.90
55436;DHT22;41307;53.142;6.430;2022-11-12T03:50:23;5.80;99.90
55436;DHT22;41307;53.142;6.430;2022-11-12T03:52:55;5.40;99.90
55436;DHT22;41307;53.142;6.430;2022-11-12T03:55:25;4.70;99.90
55436;DHT22;41307;53.142;6.430;2022-11-12T03:57:52;4.90;99.90
55436;DHT22;41307;53.142;6.430;2022-11-12T04:00:20;5.30;99.90
55436;DHT22;41307;53.142;6.430;2022-11-12T04:02:46;4.60;99.90
55436;DHT22;41307;53.142;6.430;2022-11-12T04:05:14;4.90;99.90
55436;DHT22;41307;53.142;6.430;2022-11-12T04:10:48;5.40;99.90
55436;DHT22;41307;53.142;6.430;2022-11-12T04:13:14;5.30;99.90
55436;DHT22;41307;53.142;6.430;2022-11-12T04:15:57;5.40;99.90
55436;DHT22;41307;53.142;6.430;2022-11-12T04:18:42;4.50;99.90
55436;DHT22;41307;53.142;6.430;2022-11-12T04:21:47;4.40;99.90
55436;DHT22;41307;53.142;6.430;2022-11-12T04:27:28;4.70;99.90
55436;DHT22;41307;53.142;6.430;2022-11-12T04:29:55;4.50;99.90
55436;DHT22;41307;53.142;6.430;2022-11-12T04:32:53;5.10;99.90
55436;DHT22;41307;53.142;6.430;2022-11-12T04:35:20;4.50;99.90
55436;DHT22;41307;53.142;6.430;2022-11-12T04:37:47;5.20;99.90
55436;DHT22;41307;53.142;6.430;2022-11-12T04:40:23;4.90;99.90
55436;DHT22;41307;53.142;6.430;2022-11-12T04:43:12;4.50;99.90
55436;DHT22;41307;53.142;6.430;2022-11-12T04:45:57;5.30;99.90
55436;DHT22;41307;53.142;6.430;2022-11-12T04:48:23;4.60;99.90
55436;DHT22;41307;53.142;6.430;2022-11-12T04:50:54;4.40;99.90
55436;DHT22;41307;53.142;6.430;2022-11-12T04:53:21;4.40;99.90
55436;DHT22;41307;53.142;6.430;2022-11-12T04:55:55;5.30;99.90
55436;DHT22;41307;53.142;6.430;2022-11-12T04:58:21;4.80;99.90
55436;DHT22;41307;53.142;6.430;2022-11-12T05:00:48;5.10;99.90
55436;DHT22;41307;53.142;6.430;2022-11-12T05:03:14;5.20;99.90
55436;DHT22;41307;53.142;6.430;2022-11-12T05:05:40;4.20;99.90
55436;DHT22;41307;53.142;6.430;2022-11-12T05:08:06;5.20;99.90
55436;DHT22;41307;53.142;6.430;2022-11-12T05:10:31;4.20;99.90
55436;DHT22;41307;53.142;6.430;2022-11-12T05:12:57;5.10;99.90
55436;DHT22;41307;53.142;6.430;2022-11-12T05:15:24;4.50;99.90
55436;DHT22;41307;53.142;6.430;2022-11-12T05:17:52;4.10;99.90
55436;DHT22;41307;53.142;6.430;2022-11-12T05:20:18;4.20;99.90
55436;DHT22;41307;53.142;6.430;2022-11-12T05:22:44;4.90;99.90
55436;DHT22;41307;53.142;6.430;2022-11-12T05:25:10;4.60;99.90
55436;DHT22;41307;53.142;6.430;2022-11-12T05:27:35;4.80;99.90
55436;DHT22;41307;53.142;6.430;2022-11-12T05:30:07;5.30;99.90
55436;DHT22;41307;53.142;6.430;2022-11-12T05:32:33;4.40;99.90
55436;DHT22;41307;53.142;6.430;2022-11-12T05:34:58;5.30;99.90
55436;DHT22;41307;53.142;6.430;2022-11-12T05:37:24;4.90;99.90
55436;DHT22;41307;53.142;6.430;2022-11-12T05:39:50;5.00;99.90
55436;DHT22;41307;53.142;6.430;2022-11-12T05:42:16;4.50;99.90
55436;DHT22;41307;53.142;6.430;2022-11-12T05:44:41;4.50;99.90
55436;DHT22;41307;53.142;6.430;2022-11-12T05:47:07;4.50;99.90
55436;DHT22;41307;53.142;6.430;2022-11-12T05:49:33;4.10;99.90
55436;DHT22;41307;53.142;6.430;2022-11-12T05:51:59;4.50;99.90
55436;DHT22;41307;53.142;6.430;2022-11-12T05:54:34;4.90;99.90
55436;DHT22;41307;53.142;6.430;2022-11-12T05:57:02;5.20;99.90
55436;DHT22;41307;53.142;6.430;2022-11-12T05:59:28;4.30;99.90
55436;DHT22;41307;53.142;6.430;2022-11-12T06:01:56;5.50;99.90
55436;DHT22;41307;53.142;6.430;2022-11-12T06:04:24;4.70;99.90
55436;DHT22;41307;53.142;6.430;2022-11-12T06:06:50;4.70;99.90
55436;DHT22;41307;53.142;6.430;2022-11-12T06:09:16;3.50;99.90
55436;DHT22;41307;53.142;6.430;2022-11-12T06:11:42;4.40;99.90
55436;DHT22;41307;53.142;6.430;2022-11-12T06:14:11;4.90;99.90
55436;DHT22;41307;53.142;6.430;2022-11-12T06:16:39;5.00;99.90
55436;DHT22;41307;53.142;6.430;2022-11-12T06:19:07;4.90;99.90
55436;DHT22;41307;53.142;6.430;2022-11-12T06:21:33;5.50;99.90
55436;DHT22;41307;53.142;6.430;2022-11-12T06:23:59;5.00;99.90
55436;DHT22;41307;53.142;6.430;2022-11-12T06:26:28;4.90;99.90
55436;DHT22;41307;53.142;6.430;2022-11-12T06:28:55;4.90;99.90
55436;DHT22;41307;53.142;6.430;2022-11-12T06:31:22;4.60;99.90
55436;DHT22;41307;53.142;6.430;2022-11-12T06:33:50;4.60;99.90
55436;DHT22;41307;53.142;6.430;2022-11-12T06:36:18;4.80;99.90
55436;DHT22;41307;53.142;6.430;2022-11-12T06:38:44;4.80;99.90
55436;DHT22;41307;53.142;6.430;2022-11-12T06:41:12;4.80;99.90
55436;DHT22;41307;53.142;6.430;2022-11-12T06:43:39;4.90;99.90
55436;DHT22;41307;53.142;6.430;2022-11-12T06:46:11;5.00;99.90
55436;DHT22;41307;53.142;6.430;2022-11-12T06:48:38;5.80;99.90
55436;DHT22;41307;53.142;6.430;2022-11-12T06:51:15;5.00;99.90
55436;DHT22;41307;53.142;6.430;2022-11-12T06:53:42;5.00;99.90
55436;DHT22;41307;53.142;6.430;2022-11-12T06:56:13;5.10;99.90
55436;DHT22;41307;53.142;6.430;2022-11-12T06:58:40;6.00;99.90
55436;DHT22;41307;53.142;6.430;2022-11-12T07:01:14;5.10;99.90
55436;DHT22;41307;53.142;6.430;2022-11-12T07:03:43;5.00;99.90
55436;DHT22;41307;53.142;6.430;2022-11-12T07:06:19;5.40;99.90
55436;DHT22;41307;53.142;6.430;2022-11-12T07:08:46;6.10;99.90
55436;DHT22;41307;53.142;6.430;2022-11-12T07:11:17;5.50;99.90
55436;DHT22;41307;53.142;6.430;2022-11-12T07:13:46;5.30;99.90
55436;DHT22;41307;53.142;6.430;2022-11-12T07:16:13;5.30;99.90
55436;DHT22;41307;53.142;6.430;2022-11-12T07:18:43;5.20;99.90
55436;DHT22;41307;53.142;6.430;2022-11-12T07:21:14;6.00;99.90
55436;DHT22;41307;53.142;6.430;2022-11-12T07:23:40;5.50;99.90
55436;DHT22;41307;53.142;6.430;2022-11-12T07:26:11;5.40;99.90
55436;DHT22;41307;53.142;6.430;2022-11-12T07:28:37;5.40;99.90
55436;DHT22;41307;53.142;6.430;2022-11-12T07:31:05;6.10;99.90
55436;DHT22;41307;53.142;6.430;2022-11-12T07:33:34;5.50;99.90
55436;DHT22;41307;53.142;6.430;2022-11-12T07:36:10;5.50;99.90
55436;DHT22;41307;53.142;6.430;2022-11-12T07:38:38;5.50;99.90
55436;DHT22;41307;53.142;6.430;2022-11-12T07:41:17;6.30;99.90
55436;DHT22;41307;53.142;6.430;2022-11-12T07:43:44;5.80;99.90
55436;DHT22;41307;53.142;6.430;2022-11-12T07:46:13;5.60;99.90
55436;DHT22;41307;53.142;6.430;2022-11-12T07:48:40;5.70;99.90
55436;DHT22;41307;53.142;6.430;2022-11-12T07:51:15;5.70;99.90
55436;DHT22;41307;53.142;6.430;2022-11-12T07:53:47;5.70;99.90
55436;DHT22;41307;53.142;6.430;2022-11-12T07:56:16;5.70;99.90
55436;DHT22;41307;53.142;6.430;2022-11-12T07:58:42;5.80;99.90
55436;DHT22;41307;53.142;6.430;2022-11-12T08:01:09;5.80;99.90
55436;DHT22;41307;53.142;6.430;2022-11-12T08:03:36;5.80;99.90
55436;DHT22;41307;53.142;6.430;2022-11-12T08:06:02;6.80;99.90
55436;DHT22;41307;53.142;6.430;2022-11-12T08:08:28;6.10;99.90
55436;DHT22;41307;53.142;6.430;2022-11-12T08:10:58;6.20;99.90
55436;DHT22;41307;53.142;6.430;2022-11-12T08:13:24;6.30;99.90
55436;DHT22;41307;53.142;6.430;2022-11-12T08:16:00;6.70;99.90
55436;DHT22;41307;53.142;6.430;2022-11-12T08:18:28;6.60;99.90
55436;DHT22;41307;53.142;6.430;2022-11-12T08:21:04;6.90;99.90
55436;DHT22;41307;53.142;6.430;2022-11-12T08:23:31;6.50;99.90
55436;DHT22;41307;53.142;6.430;2022-11-12T08:26:01;6.60;99.90
55436;DHT22;41307;53.142;6.430;2022-11-12T08:28:28;6.70;99.90
55436;DHT22;41307;53.142;6.430;2022-11-12T08:30:54;7.10;99.90
55436;DHT22;41307;53.142;6.430;2022-11-12T08:33:21;6.70;99.90
55436;DHT22;41307;53.142;6.430;2022-11-12T08:35:47;6.70;99.90
55436;DHT22;41307;53.142;6.430;2022-11-12T08:38:14;6.80;99.90
55436;DHT22;41307;53.142;6.430;2022-11-12T08:40:42;6.60;99.90
55436;DHT22;41307;53.142;6.430;2022-11-12T08:43:10;7.60;99.90
55436;DHT22;41307;53.142;6.430;2022-11-12T08:45:37;7.10;99.90
55436;DHT22;41307;53.142;6.430;2022-11-12T08:48:06;6.90;99.90
55436;DHT22;41307;53.142;6.430;2022-11-12T08:50:33;6.90;99.90
55436;DHT22;41307;53.142;6.430;2022-11-12T08:53:03;7.40;99.90
55436;DHT22;41307;53.142;6.430;2022-11-12T08:55:30;7.10;99.90
55436;DHT22;41307;53.142;6.430;2022-11-12T08:57:59;7.10;99.90
55436;DHT22;41307;53.142;6.430;2022-11-12T09:00:32;7.70;99.90
55436;DHT22;41307;53.142;6.430;2022-11-12T09:03:03;7.20;99.90
55436;DHT22;41307;53.142;6.430;2022-11-12T09:05:30;7.20;99.90
55436;DHT22;41307;53.142;6.430;2022-11-12T09:08:07;6.90;99.90
55436;DHT22;41307;53.142;6.430;2022-11-12T09:10:33;7.20;99.90
55436;DHT22;41307;53.142;6.430;2022-11-12T09:13:00;7.30;99.90
55436;DHT22;41307;53.142;6.430;2022-11-12T09:15:29;7.90;99.90
55436;DHT22;41307;53.142;6.430;2022-11-12T09:17:56;7.40;99.90
55436;DHT22;41307;53.142;6.430;2022-11-12T09:20:23;7.50;99.90
55436;DHT22;41307;53.142;6.430;2022-11-12T09:22:49;7.50;99.90
55436;DHT22;41307;53.142;6.430;2022-11-12T09:25:15;7.50;99.90
55436;DHT22;41307;53.142;6.430;2022-11-12T09:27:48;7.40;99.90
55436;DHT22;41307;53.142;6.430;2022-11-12T09:30:17;7.40;99.90
55436;DHT22;41307;53.142;6.430;2022-11-12T09:32:43;7.50;99.90
55436;DHT22;41307;53.142;6.430;2022-11-12T09:35:08;7.80;99.90
55436;DHT22;41307;53.142;6.430;2022-11-12T09:37:36;7.50;99.90
55436;DHT22;41307;53.142;6.430;2022-11-12T09:40:02;7.80;99.90
55436;DHT22;41307;53.142;6.430;2022-11-12T09:42:29;7.60;99.90
55436;DHT22;41307;53.142;6.430;2022-11-12T09:45:07;7.80;99.90
55436;DHT22;41307;53.142;6.430;2022-11-12T09:47:44;7.80;99.90
55436;DHT22;41307;53.142;6.430;2022-11-12T09:50:33;8.20;99.90
55436;DHT22;41307;53.142;6.430;2022-11-12T09:53:18;7.80;99.90
55436;DHT22;41307;53.142;6.430;2022-11-12T09:55:48;7.90;99.90
55436;DHT22;41307;53.142;6.430;2022-11-12T09:58:17;8.20;99.90
55436;DHT22;41307;53.142;6.430;2022-11-12T10:01:02;7.90;99.90
55436;DHT22;41307;53.142;6.430;2022-11-12T10:03:39;8.00;99.90
55436;DHT22;41307;53.142;6.430;2022-11-12T10:06:43;8.00;99.90
55436;DHT22;41307;53.142;6.430;2022-11-12T10:09:19;7.90;99.90
55436;DHT22;41307;53.142;6.430;2022-11-12T10:12:04;8.00;99.90
55436;DHT22;41307;53.142;6.430;2022-11-12T10:15:01;7.90;99.90
55436;DHT22;41307;53.142;6.430;2022-11-12T10:18:11;8.00;99.90
55436;DHT22;41307;53.142;6.430;2022-11-12T10:23:28;8.00;99.90
55436;DHT22;41307;53.142;6.430;2022-11-12T10:26:18;8.10;99.90
55436;DHT22;41307;53.142;6.430;2022-11-12T10:31:20;8.20;99.90
55436;DHT22;41307;53.142;6.430;2022-11-12T10:33:46;7.80;99.90
55436;DHT22;41307;53.142;6.430;2022-11-12T10:36:37;8.20;99.90
55436;DHT22;41307;53.142;6.430;2022-11-12T10:39:05;8.20;99.90
55436;DHT22;41307;53.142;6.430;2022-11-12T10:41:32;8.20;99.90
55436;DHT22;41307;53.142;6.430;2022-11-12T10:44:00;8.50;99.90
55436;DHT22;41307;53.142;6.430;2022-11-12T10:46:32;8.20;99.90
55436;DHT22;41307;53.142;6.430;2022-11-12T10:51:31;8.30;99.90
55436;DHT22;41307;53.142;6.430;2022-11-12T10:53:57;8.30;99.90
55436;DHT22;41307;53.142;6.430;2022-11-12T10:56:30;8.30;99.90
55436;DHT22;41307;53.142;6.430;2022-11-12T10:59:18;8.30;99.90
55436;DHT22;41307;53.142;6.430;2022-11-12T11:01:46;8.30;99.90
55436;DHT22;41307;53.142;6.430;2022-11-12T11:04:28;8.30;99.90
55436;DHT22;41307;53.142;6.430;2022-11-12T11:07:21;8.20;99.90
55436;DHT22;41307;53.142;6.430;2022-11-12T11:09:53;8.20;99.90
55436;DHT22;41307;53.142;6.430;2022-11-12T11:12:28;8.30;99.90
55436;DHT22;41307;53.142;6.430;2022-11-12T11:17:40;8.30;99.90
55436;DHT22;41307;53.142;6.430;2022-11-12T11:20:22;8.30;99.90
55436;DHT22;41307;53.142;6.430;2022-11-12T11:23:24;8.40;99.90
55436;DHT22;41307;53.142;6.430;2022-11-12T11:25:57;8.40;99.90
55436;DHT22;41307;53.142;6.430;2022-11-12T11:28:36;8.50;99.90
55436;DHT22;41307;53.142;6.430;2022-11-12T11:31:14;8.60;99.90
55436;DHT22;41307;53.142;6.430;2022-11-12T11:34:03;8.60;99.90
55436;DHT22;41307;53.142;6.430;2022-11-12T11:45:17;8.70;99.90
55436;DHT22;41307;53.142;6.430;2022-11-12T11:50:58;8.80;99.90
55436;DHT22;41307;53.142;6.430;2022-11-12T11:53:50;8.80;99.90
55436;DHT22;41307;53.142;6.430;2022-11-12T11:56:57;8.80;99.90
55436;DHT22;41307;53.142;6.430;2022-11-12T12:03:03;8.90;99.90
55436;DHT22;41307;53.142;6.430;2022-11-12T12:12:03;9.10;99.90
55436;DHT22;41307;53.142;6.430;2022-11-12T12:17:41;9.20;99.90
55436;DHT22;41307;53.142;6.430;2022-11-12T12:23:25;9.30;99.90
55436;DHT22;41307;53.142;6.430;2022-11-12T12:25:55;9.30;99.90
55436;DHT22;41307;53.142;6.430;2022-11-12T12:28:42;9.30;99.90
55436;DHT22;41307;53.142;6.430;2022-11-12T12:31:45;9.30;99.90
55436;DHT22;41307;53.142;6.430;2022-11-12T12:34:44;9.30;99.90
55436;DHT22;41307;53.142;6.430;2022-11-12T12:37:39;9.40;99.90
55436;DHT22;41307;53.142;6.430;2022-11-12T12:40:23;9.50;99.90
55436;DHT22;41307;53.142;6.430;2022-11-12T12:43:22;9.50;99.90
55436;DHT22;41307;53.142;6.430;2022-11-12T12:46:14;9.50;99.90
55436;DHT22;41307;53.142;6.430;2022-11-12T12:52:27;9.50;99.90
55436;DHT22;41307;53.142;6.430;2022-11-12T12:54:54;9.60;99.90
55436;DHT22;41307;53.142;6.430;2022-11-12T12:57:37;9.80;99.90
55436;DHT22;41307;53.142;6.430;2022-11-12T13:00:23;9.40;99.90
55436;DHT22;41307;53.142;6.430;2022-11-12T13:02:50;9.50;99.90
55436;DHT22;41307;53.142;6.430;2022-11-12T13:05:34;9.60;99.90
55436;DHT22;41307;53.142;6.430;2022-11-12T13:08:10;9.70;99.90
55436;DHT22;41307;53.142;6.430;2022-11-12T13:15:51;9.80;99.90
55436;DHT22;41307;53.142;6.430;2022-11-12T13:21:16;9.90;99.90
55436;DHT22;41307;53.142;6.430;2022-11-12T13:24:00;9.90;99.90
55436;DHT22;41307;53.142;6.430;2022-11-12T13:26:55;9.80;99.90
55436;DHT22;41307;53.142;6.430;2022-11-12T13:29:41;9.80;99.90
55436;DHT22;41307;53.142;6.430;2022-11-12T13:32:27;9.50;99.90
55436;DHT22;41307;53.142;6.430;2022-11-12T13:41:02;9.40;99.90
55436;DHT22;41307;53.142;6.430;2022-11-12T13:43:24;9.60;99.90
55436;DHT22;41307;53.142;6.430;2022-11-12T13:48:59;9.50;99.90
55436;DHT22;41307;53.142;6.430;2022-11-12T13:51:38;9.60;99.90
55436;DHT22;41307;53.142;6.430;2022-11-12T13:54:36;9.50;99.90
55436;DHT22;41307;53.142;6.430;2022-11-12T14:00:08;9.50;99.90
55436;DHT22;41307;53.142;6.430;2022-11-12T14:05:27;9.30;99.90
55436;DHT22;41307;53.142;6.430;2022-11-12T14:20:37;9.40;99.90
55436;DHT22;41307;53.142;6.430;2022-11-12T14:23:14;9.40;99.90
55436;DHT22;41307;53.142;6.430;2022-11-12T14:26:10;9.70;99.90
55436;DHT22;41307;53.142;6.430;2022-11-12T14:28:57;9.40;99.90
55436;DHT22;41307;53.142;6.430;2022-11-12T14:31:27;9.60;99.90
55436;DHT22;41307;53.142;6.430;2022-11-12T14:33:53;9.40;99.90
55436;DHT22;41307;53.142;6.430;2022-11-12T14:36:31;9.30;99.90
55436;DHT22;41307;53.142;6.430;2022-11-12T14:39:02;9.30;99.90
55436;DHT22;41307;53.142;6.430;2022-11-12T14:41:40;9.30;99.90
55436;DHT22;41307;53.142;6.430;2022-11-12T14:44:17;9.30;99.90
55436;DHT22;41307;53.142;6.430;2022-11-12T14:47:07;9.30;99.90
55436;DHT22;41307;53.142;6.430;2022-11-12T14:49:53;9.30;99.90
55436;DHT22;41307;53.142;6.430;2022-11-12T14:52:38;9.20;99.90
55436;DHT22;41307;53.142;6.430;2022-11-12T14:55:23;9.20;99.90
55436;DHT22;41307;53.142;6.430;2022-11-12T14:57:51;9.30;99.90
55436;DHT22;41307;53.142;6.430;2022-11-12T15:02:59;9.10;99.90
55436;DHT22;41307;53.142;6.430;2022-11-12T15:05:26;9.30;99.90
55436;DHT22;41307;53.142;6.430;2022-11-12T15:07:53;9.00;99.90
55436;DHT22;41307;53.142;6.430;2022-11-12T15:10:49;9.00;99.90
55436;DHT22;41307;53.142;6.430;2022-11-12T15:13:17;9.30;99.90
55436;DHT22;41307;53.142;6.430;2022-11-12T15:15:51;8.90;99.90
55436;DHT22;41307;53.142;6.430;2022-11-12T15:18:29;8.90;99.90
55436;DHT22;41307;53.142;6.430;2022-11-12T15:26:39;8.80;99.90
55436;DHT22;41307;53.142;6.430;2022-11-12T15:31:52;8.60;99.90
55436;DHT22;41307;53.142;6.430;2022-11-12T15:37:05;8.50;99.90
55436;DHT22;41307;53.142;6.430;2022-11-12T15:39:40;8.40;99.90
55436;DHT22;41307;53.142;6.430;2022-11-12T15:42:20;8.40;99.90
55436;DHT22;41307;53.142;6.430;2022-11-12T15:44:49;8.30;99.90
55436;DHT22;41307;53.142;6.430;2022-11-12T15:47:19;8.30;99.90
55436;DHT22;41307;53.142;6.430;2022-11-12T15:49:50;8.20;99.90
55436;DHT22;41307;53.142;6.430;2022-11-12T15:52:19;8.20;99.90
55436;DHT22;41307;53.142;6.430;2022-11-12T15:54:48;8.10;99.90
55436;DHT22;41307;53.142;6.430;2022-11-12T16:00:21;8.00;99.90
55436;DHT22;41307;53.142;6.430;2022-11-12T16:02:57;7.90;99.90
55436;DHT22;41307;53.142;6.430;2022-11-12T16:05:24;7.90;99.90
55436;DHT22;41307;53.142;6.430;2022-11-12T16:07:50;7.80;99.90
55436;DHT22;41307;53.142;6.430;2022-11-12T16:10:19;7.80;99.90
55436;DHT22;41307;53.142;6.430;2022-11-12T16:12:48;7.70;99.90
55436;DHT22;41307;53.142;6.430;2022-11-12T16:15:19;7.70;99.90
55436;DHT22;41307;53.142;6.430;2022-11-12T16:17:52;7.80;99.90
55436;DHT22;41307;53.142;6.430;2022-11-12T16:20:25;7.60;99.90
55436;DHT22;41307;53.142;6.430;2022-11-12T16:22:51;7.80;99.90
55436;DHT22;41307;53.142;6.430;2022-11-12T16:25:21;7.70;99.90
55436;DHT22;41307;53.142;6.430;2022-11-12T16:27:52;8.00;99.90
55436;DHT22;41307;53.142;6.430;2022-11-12T16:30:29;8.50;99.90
55436;DHT22;41307;53.142;6.430;2022-11-12T16:32:59;7.60;99.90
55436;DHT22;41307;53.142;6.430;2022-11-12T16:35:30;7.50;99.90
55436;DHT22;41307;53.142;6.430;2022-11-12T16:37:57;7.50;99.90
55436;DHT22;41307;53.142;6.430;2022-11-12T16:40:29;7.40;99.90
55436;DHT22;41307;53.142;6.430;2022-11-12T16:42:55;7.40;99.90
55436;DHT22;41307;53.142;6.430;2022-11-12T16:45:32;7.40;99.90
55436;DHT22;41307;53.142;6.430;2022-11-12T16:47:59;7.40;99.90
55436;DHT22;41307;53.142;6.430;2022-11-12T16:50:30;7.30;99.90
55436;DHT22;41307;53.142;6.430;2022-11-12T16:52:56;7.30;99.90
55436;DHT22;41307;53.142;6.430;2022-11-12T16:55:24;7.90;99.90
55436;DHT22;41307;53.142;6.430;2022-11-12T16:57:50;7.40;99.90
55436;DHT22;41307;53.142;6.430;2022-11-12T17:00:17;7.20;99.90
55436;DHT22;41307;53.142;6.430;2022-11-12T17:02:43;7.10;99.90
55436;DHT22;41307;53.142;6.430;2022-11-12T17:05:20;7.10;99.90
55436;DHT22;41307;53.142;6.430;2022-11-12T17:07:47;7.10;99.90
55436;DHT22;41307;53.142;6.430;2022-11-12T17:10:13;7.70;99.90
55436;DHT22;41307;53.142;6.430;2022-11-12T17:12:50;7.00;99.90
55436;DHT22;41307;53.142;6.430;2022-11-12T17:15:16;7.00;99.90
55436;DHT22;41307;53.142;6.430;2022-11-12T17:17:45;7.00;99.90
55436;DHT22;41307;53.142;6.430;2022-11-12T17:20:14;6.90;99.90
55436;DHT22;41307;53.142;6.430;2022-11-12T17:22:40;6.90;99.90
55436;DHT22;41307;53.142;6.430;2022-11-12T17:25:06;6.90;99.90
55436;DHT22;41307;53.142;6.430;2022-11-12T17:27:32;6.80;99.90
55436;DHT22;41307;53.142;6.430;2022-11-12T17:29:58;6.80;99.90
55436;DHT22;41307;53.142;6.430;2022-11-12T17:32:29;6.80;99.90
55436;DHT22;41307;53.142;6.430;2022-11-12T17:34:55;7.50;99.90
55436;DHT22;41307;53.142;6.430;2022-11-12T17:37:21;7.20;99.90
55436;DHT22;41307;53.142;6.430;2022-11-12T17:39:50;6.70;99.90
55436;DHT22;41307;53.142;6.430;2022-11-12T17:42:16;6.70;99.90
55436;DHT22;41307;53.142;6.430;2022-11-12T17:44:44;6.60;99.90
55436;DHT22;41307;53.142;6.430;2022-11-12T17:47:11;6.60;99.90
55436;DHT22;41307;53.142;6.430;2022-11-12T17:49:37;6.70;99.90
55436;DHT22;41307;53.142;6.430;2022-11-12T17:52:02;6.70;99.90
55436;DHT22;41307;53.142;6.430;2022-11-12T17:54:28;6.50;99.90